Vg 117 Kungsvik — SBTH — position and weather

sailwx.info

Track history (hours):
 
Tides and Currents Weather Stations Pressure Air Temp Water Temp Dewpoint Dewpoint Depression Visibility Wind Speed Wind Dir Waves Ship Positions

Vg 117 Kungsvik

Last reported at 2016-May-01 20:11 UTC. Time now 2016-May-01 21:11 UTC.
Position N 56°58' E 011°50'.

Length 17 m; draft 3.7 m.

Type: Fishing. MMSI: 266137000.

Date/timePositionNaut miles runAvg speedWind from/ knotsBaromVisibWave heightAir tempDewpointWater temp
2016-May-01 20:11N 56°58' E 011°50'5 8.2
2016-May-01 19:33N 57°00' E 011°59'8 8.3
2016-May-01 18:32N 57°03' E 012°13'2 0.1
2016-May-01 03:06N 57°04' E 012°16'0 0.0
2016-Apr-30 21:30N 57°04' E 012°16'0 0.0
2016-Apr-30 20:24N 57°04' E 012°16'0 0.0
2016-Apr-30 15:12N 57°04' E 012°16'0 0.0
2016-Apr-30 14:24N 57°04' E 012°16'0 0.0
2016-Apr-30 01:06N 57°04' E 012°16'2 0.0
2016-Apr-28 04:33N 57°02' E 012°15'8 8.0
2016-Apr-28 03:33N 56°54' E 012°17'8 8.0
2016-Apr-28 02:33N 56°46' E 012°19'42 8.5
2016-Apr-27 21:34N 56°05' E 012°37'9 9.1
2016-Apr-27 20:33N 55°57' E 012°43'9 8.6
2016-Apr-27 19:33N 55°48' E 012°43'9 9.0
2016-Apr-27 18:33N 55°39' E 012°42'9 8.8
2016-Apr-27 17:33N 55°30' E 012°43'8 8.3
2016-Apr-27 16:33N 55°22' E 012°42'43 7.1
2016-Apr-27 10:28N 55°20' E 013°59'7 7.5
2016-Apr-27 09:32N 55°21' E 014°11'6 6.5
2016-Apr-27 08:32N 55°25' E 014°19'6 6.5
2016-Apr-27 07:33N 55°31' E 014°23'2 2.0
2016-Apr-27 06:31N 55°33' E 014°21'0 0.0
2016-Apr-27 05:31N 55°33' E 014°21'0 0.0
2016-Apr-27 04:31N 55°33' E 014°21'0 0.0
2016-Apr-27 03:31N 55°33' E 014°21'0 0.0
2016-Apr-27 02:25N 55°33' E 014°21'0 0.0
2016-Apr-27 01:25N 55°33' E 014°21'0 0.0
2016-Apr-27 00:25N 55°33' E 014°21'0 0.0
2016-Apr-26 23:31N 55°33' E 014°21'0 0.0
2016-Apr-26 22:31N 55°33' E 014°21'0 0.0
2016-Apr-26 21:31N 55°33' E 014°21'0 0.0
2016-Apr-26 20:31N 55°33' E 014°21'0 0.0
2016-Apr-26 19:31N 55°33' E 014°21'0 0.0
2016-Apr-26 18:31N 55°33' E 014°21'0 0.0
2016-Apr-26 17:31N 55°33' E 014°21'0 0.0
2016-Apr-26 16:31N 55°33' E 014°21'0 0.0
2016-Apr-26 15:31N 55°33' E 014°21'0 0.0
2016-Apr-26 14:31N 55°33' E 014°21'0 0.0
2016-Apr-26 13:31N 55°33' E 014°21'0 0.0
2016-Apr-26 12:25N 55°33' E 014°21'0 0.0
2016-Apr-26 11:31N 55°33' E 014°21'0 0.0
2016-Apr-26 10:31N 55°33' E 014°21'0 0.0
2016-Apr-26 09:31N 55°33' E 014°21'0 0.0
2016-Apr-26 08:19N 55°33' E 014°21'0 0.0
2016-Apr-26 07:31N 55°33' E 014°21'0 0.0
2016-Apr-26 06:31N 55°33' E 014°21'0 0.0
2016-Apr-26 05:31N 55°33' E 014°21'0 0.0
2016-Apr-26 04:13N 55°33' E 014°21'0 0.0
2016-Apr-26 03:31N 55°33' E 014°21'0 0.0
2016-Apr-26 02:31N 55°33' E 014°21'0 0.0
2016-Apr-26 01:31N 55°33' E 014°21'0 0.0
2016-Apr-26 00:31N 55°33' E 014°21'0 0.0
2016-Apr-25 23:25N 55°33' E 014°21'0 0.0
2016-Apr-25 22:31N 55°33' E 014°21'0 0.0
2016-Apr-25 21:31N 55°33' E 014°21'0 0.0
2016-Apr-25 20:31N 55°33' E 014°21'4 3.7
2016-Apr-25 19:32N 55°30' E 014°23'8 8.1
2016-Apr-25 18:33N 55°22' E 014°20'8 7.8
2016-Apr-25 17:32N 55°15' E 014°13'5 4.9
2016-Apr-25 16:29N 55°11' E 014°08'2 2.0
2016-Apr-25 15:30N 55°09' E 014°10'3 2.7
2016-Apr-25 14:32N 55°09' E 014°14'3 2.6
2016-Apr-25 13:33N 55°10' E 014°19'0 0.2
2016-Apr-25 12:33N 55°10' E 014°19'3 2.9
2016-Apr-25 11:33N 55°08' E 014°15'3 2.9
2016-Apr-25 10:33N 55°06' E 014°12'3 2.9
2016-Apr-25 09:33N 55°04' E 014°09'3 2.4
2016-Apr-25 08:19N 55°03' E 014°04'2 1.9
2016-Apr-25 07:29N 55°03' E 014°07'3 2.7
2016-Apr-25 06:33N 55°05' E 014°10'3 2.6
2016-Apr-25 05:32N 55°07' E 014°12'3 2.7
2016-Apr-25 04:33N 55°09' E 014°16'3 3.0
2016-Apr-25 03:32N 55°11' E 014°19'6 6.4
2016-Apr-25 02:32N 55°17' E 014°20'8 7.9
2016-Apr-25 01:33N 55°25' E 014°21'8 7.9
2016-Apr-25 00:33N 55°33' E 014°22'1 0.6
2016-Apr-24 23:32N 55°33' E 014°22'0 0.0
2016-Apr-24 22:32N 55°33' E 014°22'0 0.0
2016-Apr-24 21:32N 55°33' E 014°22'0 0.0
2016-Apr-24 20:32N 55°33' E 014°22'0 0.0
2016-Apr-24 19:32N 55°33' E 014°22'0 0.0
2016-Apr-24 18:20N 55°33' E 014°22'0 0.0
2016-Apr-24 17:32N 55°33' E 014°22'0 0.0
2016-Apr-24 16:32N 55°33' E 014°22'0 0.0
2016-Apr-24 15:32N 55°33' E 014°22'0 0.0
2016-Apr-24 14:32N 55°33' E 014°22'0 0.0
2016-Apr-24 13:32N 55°33' E 014°22'0 0.0
2016-Apr-24 12:32N 55°33' E 014°22'0 0.0
2016-Apr-24 11:20N 55°33' E 014°22'0 0.0
2016-Apr-24 10:20N 55°33' E 014°22'0 0.0
2016-Apr-24 09:32N 55°33' E 014°22'0 0.0
2016-Apr-24 08:32N 55°33' E 014°22'0 0.0
2016-Apr-24 07:26N 55°33' E 014°22'0 0.0
2016-Apr-24 06:32N 55°33' E 014°22'0 0.0
2016-Apr-24 04:32N 55°33' E 014°22'0 0.0
2016-Apr-24 03:32N 55°33' E 014°22'0 0.0
2016-Apr-24 02:32N 55°33' E 014°22'0 0.0
2016-Apr-24 01:26N 55°33' E 014°22'0 0.0
2016-Apr-24 00:26N 55°33' E 014°22'0 0.0
2016-Apr-23 23:32N 55°33' E 014°22'0 0.0
2016-Apr-23 22:32N 55°33' E 014°22'0 0.0
2016-Apr-23 21:32N 55°33' E 014°22'0 0.0
2016-Apr-23 20:26N 55°33' E 014°22'0 0.0
2016-Apr-23 19:32N 55°33' E 014°22'0 0.0
2016-Apr-23 18:26N 55°33' E 014°22'0 0.0
2016-Apr-23 17:32N 55°33' E 014°22'0 0.0
2016-Apr-23 16:32N 55°33' E 014°22'0 0.0
2016-Apr-23 15:32N 55°33' E 014°22'0 0.0
2016-Apr-23 14:32N 55°33' E 014°22'0 0.0
2016-Apr-23 13:32N 55°33' E 014°22'0 0.0
2016-Apr-23 12:26N 55°33' E 014°22'0 0.0
2016-Apr-23 11:32N 55°33' E 014°22'0 0.0
2016-Apr-23 10:32N 55°33' E 014°22'0 0.0
2016-Apr-23 09:32N 55°33' E 014°22'0 0.0
2016-Apr-23 08:32N 55°33' E 014°22'0 0.0
2016-Apr-23 07:32N 55°33' E 014°22'0 0.0
2016-Apr-23 06:32N 55°33' E 014°22'0 0.0
2016-Apr-23 05:32N 55°33' E 014°22'0 0.0
2016-Apr-23 04:32N 55°33' E 014°22'0 0.0
2016-Apr-23 03:32N 55°33' E 014°22'0 0.0
2016-Apr-23 02:32N 55°33' E 014°22'0 0.0
2016-Apr-23 01:32N 55°33' E 014°22'0 0.0
2016-Apr-23 00:32N 55°33' E 014°22'0 0.0
2016-Apr-22 23:26N 55°33' E 014°22'0 0.0
2016-Apr-22 22:32N 55°33' E 014°22'0 0.0
2016-Apr-22 21:26N 55°33' E 014°22'0 0.0
2016-Apr-22 20:32N 55°33' E 014°22'0 0.0
2016-Apr-22 19:32N 55°33' E 014°22'0 0.0
2016-Apr-22 18:32N 55°33' E 014°22'0 0.0
2016-Apr-22 17:20N 55°33' E 014°22'0 0.0
2016-Apr-22 16:32N 55°33' E 014°22'0 0.0
2016-Apr-22 15:26N 55°33' E 014°22'0 0.0
2016-Apr-22 14:32N 55°33' E 014°22'0 0.0
2016-Apr-22 13:26N 55°33' E 014°22'0 0.0
2016-Apr-22 12:32N 55°33' E 014°22'0 0.0
2016-Apr-22 11:20N 55°33' E 014°22'0 0.0
2016-Apr-22 10:32N 55°33' E 014°22'0 0.0
2016-Apr-22 09:32N 55°33' E 014°22'0 0.0
2016-Apr-22 08:32N 55°33' E 014°22'0 0.0
2016-Apr-22 07:32N 55°33' E 014°22'0 0.0
2016-Apr-22 06:32N 55°33' E 014°22'0 0.0
2016-Apr-22 05:27N 55°33' E 014°22'0 0.0
2016-Apr-22 04:33N 55°33' E 014°22'0 0.0
2016-Apr-22 03:20N 55°33' E 014°22'0 0.0
2016-Apr-22 02:27N 55°33' E 014°22'0 0.0
2016-Apr-22 01:33N 55°33' E 014°22'0 0.0
2016-Apr-22 00:33N 55°33' E 014°22'0 0.0
2016-Apr-21 23:33N 55°33' E 014°22'0 0.0
2016-Apr-21 22:33N 55°33' E 014°22'0 0.0
2016-Apr-21 21:33N 55°33' E 014°22'0 0.0
2016-Apr-21 20:21N 55°33' E 014°22'  
Track history (hours):
 
Tides and Currents Weather Stations Pressure Air Temp Water Temp Dewpoint Dewpoint Depression Visibility Wind Speed Wind Dir Waves Ship Positions

Vg 117 Kungsvik

Last reported at 2016-May-01 20:11 UTC. Time now 2016-May-01 21:11 UTC.
Position N 56°58' E 011°50'.

Length 17 m; draft 3.7 m.

Type: Fishing. MMSI: 266137000.

Date/timePositionNaut miles runAvg speedWind from/ knotsBaromVisibWave heightAir tempDewpointWater temp
2016-May-01 20:11N 56°58' E 011°50'5 8.2
2016-May-01 19:33N 57°00' E 011°59'8 8.3
2016-May-01 18:32N 57°03' E 012°13'2 0.1
2016-May-01 03:06N 57°04' E 012°16'0 0.0
2016-Apr-30 21:30N 57°04' E 012°16'0 0.0
2016-Apr-30 20:24N 57°04' E 012°16'0 0.0
2016-Apr-30 15:12N 57°04' E 012°16'0 0.0
2016-Apr-30 14:24N 57°04' E 012°16'0 0.0
2016-Apr-30 01:06N 57°04' E 012°16'2 0.0
2016-Apr-28 04:33N 57°02' E 012°15'8 8.0
2016-Apr-28 03:33N 56°54' E 012°17'8 8.0
2016-Apr-28 02:33N 56°46' E 012°19'42 8.5
2016-Apr-27 21:34N 56°05' E 012°37'9 9.1
2016-Apr-27 20:33N 55°57' E 012°43'9 8.6
2016-Apr-27 19:33N 55°48' E 012°43'9 9.0
2016-Apr-27 18:33N 55°39' E 012°42'9 8.8
2016-Apr-27 17:33N 55°30' E 012°43'8 8.3
2016-Apr-27 16:33N 55°22' E 012°42'43 7.1
2016-Apr-27 10:28N 55°20' E 013°59'7 7.5
2016-Apr-27 09:32N 55°21' E 014°11'6 6.5
2016-Apr-27 08:32N 55°25' E 014°19'6 6.5
2016-Apr-27 07:33N 55°31' E 014°23'2 2.0
2016-Apr-27 06:31N 55°33' E 014°21'0 0.0
2016-Apr-27 05:31N 55°33' E 014°21'0 0.0
2016-Apr-27 04:31N 55°33' E 014°21'0 0.0
2016-Apr-27 03:31N 55°33' E 014°21'0 0.0
2016-Apr-27 02:25N 55°33' E 014°21'0 0.0
2016-Apr-27 01:25N 55°33' E 014°21'0 0.0
2016-Apr-27 00:25N 55°33' E 014°21'0 0.0
2016-Apr-26 23:31N 55°33' E 014°21'0 0.0
2016-Apr-26 22:31N 55°33' E 014°21'0 0.0
2016-Apr-26 21:31N 55°33' E 014°21'0 0.0
2016-Apr-26 20:31N 55°33' E 014°21'0 0.0
2016-Apr-26 19:31N 55°33' E 014°21'0 0.0
2016-Apr-26 18:31N 55°33' E 014°21'0 0.0
2016-Apr-26 17:31N 55°33' E 014°21'0 0.0
2016-Apr-26 16:31N 55°33' E 014°21'0 0.0
2016-Apr-26 15:31N 55°33' E 014°21'0 0.0
2016-Apr-26 14:31N 55°33' E 014°21'0 0.0
2016-Apr-26 13:31N 55°33' E 014°21'0 0.0
2016-Apr-26 12:25N 55°33' E 014°21'0 0.0
2016-Apr-26 11:31N 55°33' E 014°21'0 0.0
2016-Apr-26 10:31N 55°33' E 014°21'0 0.0
2016-Apr-26 09:31N 55°33' E 014°21'0 0.0
2016-Apr-26 08:19N 55°33' E 014°21'0 0.0
2016-Apr-26 07:31N 55°33' E 014°21'0 0.0
2016-Apr-26 06:31N 55°33' E 014°21'0 0.0
2016-Apr-26 05:31N 55°33' E 014°21'0 0.0
2016-Apr-26 04:13N 55°33' E 014°21'0 0.0
2016-Apr-26 03:31N 55°33' E 014°21'0 0.0
2016-Apr-26 02:31N 55°33' E 014°21'0 0.0
2016-Apr-26 01:31N 55°33' E 014°21'0 0.0
2016-Apr-26 00:31N 55°33' E 014°21'0 0.0
2016-Apr-25 23:25N 55°33' E 014°21'0 0.0
2016-Apr-25 22:31N 55°33' E 014°21'0 0.0
2016-Apr-25 21:31N 55°33' E 014°21'0 0.0
2016-Apr-25 20:31N 55°33' E 014°21'4 3.7
2016-Apr-25 19:32N 55°30' E 014°23'8 8.1
2016-Apr-25 18:33N 55°22' E 014°20'8 7.8
2016-Apr-25 17:32N 55°15' E 014°13'5 4.9
2016-Apr-25 16:29N 55°11' E 014°08'2 2.0
2016-Apr-25 15:30N 55°09' E 014°10'3 2.7
2016-Apr-25 14:32N 55°09' E 014°14'3 2.6
2016-Apr-25 13:33N 55°10' E 014°19'0 0.2
2016-Apr-25 12:33N 55°10' E 014°19'3 2.9
2016-Apr-25 11:33N 55°08' E 014°15'3 2.9
2016-Apr-25 10:33N 55°06' E 014°12'3 2.9
2016-Apr-25 09:33N 55°04' E 014°09'3 2.4
2016-Apr-25 08:19N 55°03' E 014°04'2 1.9
2016-Apr-25 07:29N 55°03' E 014°07'3 2.7
2016-Apr-25 06:33N 55°05' E 014°10'3 2.6
2016-Apr-25 05:32N 55°07' E 014°12'3 2.7
2016-Apr-25 04:33N 55°09' E 014°16'3 3.0
2016-Apr-25 03:32N 55°11' E 014°19'6 6.4
2016-Apr-25 02:32N 55°17' E 014°20'8 7.9
2016-Apr-25 01:33N 55°25' E 014°21'8 7.9
2016-Apr-25 00:33N 55°33' E 014°22'1 0.6
2016-Apr-24 23:32N 55°33' E 014°22'0 0.0
2016-Apr-24 22:32N 55°33' E 014°22'0 0.0
2016-Apr-24 21:32N 55°33' E 014°22'0 0.0
2016-Apr-24 20:32N 55°33' E 014°22'0 0.0
2016-Apr-24 19:32N 55°33' E 014°22'0 0.0
2016-Apr-24 18:20N 55°33' E 014°22'0 0.0
2016-Apr-24 17:32N 55°33' E 014°22'0 0.0
2016-Apr-24 16:32N 55°33' E 014°22'0 0.0
2016-Apr-24 15:32N 55°33' E 014°22'0 0.0
2016-Apr-24 14:32N 55°33' E 014°22'0 0.0
2016-Apr-24 13:32N 55°33' E 014°22'0 0.0
2016-Apr-24 12:32N 55°33' E 014°22'0 0.0
2016-Apr-24 11:20N 55°33' E 014°22'0 0.0
2016-Apr-24 10:20N 55°33' E 014°22'0 0.0
2016-Apr-24 09:32N 55°33' E 014°22'0 0.0
2016-Apr-24 08:32N 55°33' E 014°22'0 0.0
2016-Apr-24 07:26N 55°33' E 014°22'0 0.0
2016-Apr-24 06:32N 55°33' E 014°22'0 0.0
2016-Apr-24 04:32N 55°33' E 014°22'0 0.0
2016-Apr-24 03:32N 55°33' E 014°22'0 0.0
2016-Apr-24 02:32N 55°33' E 014°22'0 0.0
2016-Apr-24 01:26N 55°33' E 014°22'0 0.0
2016-Apr-24 00:26N 55°33' E 014°22'0 0.0
2016-Apr-23 23:32N 55°33' E 014°22'0 0.0
2016-Apr-23 22:32N 55°33' E 014°22'0 0.0
2016-Apr-23 21:32N 55°33' E 014°22'0 0.0
2016-Apr-23 20:26N 55°33' E 014°22'0 0.0
2016-Apr-23 19:32N 55°33' E 014°22'0 0.0
2016-Apr-23 18:26N 55°33' E 014°22'0 0.0
2016-Apr-23 17:32N 55°33' E 014°22'0 0.0
2016-Apr-23 16:32N 55°33' E 014°22'0 0.0
2016-Apr-23 15:32N 55°33' E 014°22'0 0.0
2016-Apr-23 14:32N 55°33' E 014°22'0 0.0
2016-Apr-23 13:32N 55°33' E 014°22'0 0.0
2016-Apr-23 12:26N 55°33' E 014°22'0 0.0
2016-Apr-23 11:32N 55°33' E 014°22'0 0.0
2016-Apr-23 10:32N 55°33' E 014°22'0 0.0
2016-Apr-23 09:32N 55°33' E 014°22'0 0.0
2016-Apr-23 08:32N 55°33' E 014°22'0 0.0
2016-Apr-23 07:32N 55°33' E 014°22'0 0.0
2016-Apr-23 06:32N 55°33' E 014°22'0 0.0
2016-Apr-23 05:32N 55°33' E 014°22'0 0.0
2016-Apr-23 04:32N 55°33' E 014°22'0 0.0
2016-Apr-23 03:32N 55°33' E 014°22'0 0.0
2016-Apr-23 02:32N 55°33' E 014°22'0 0.0
2016-Apr-23 01:32N 55°33' E 014°22'0 0.0
2016-Apr-23 00:32N 55°33' E 014°22'0 0.0
2016-Apr-22 23:26N 55°33' E 014°22'0 0.0
2016-Apr-22 22:32N 55°33' E 014°22'0 0.0
2016-Apr-22 21:26N 55°33' E 014°22'0 0.0
2016-Apr-22 20:32N 55°33' E 014°22'0 0.0
2016-Apr-22 19:32N 55°33' E 014°22'0 0.0
2016-Apr-22 18:32N 55°33' E 014°22'0 0.0
2016-Apr-22 17:20N 55°33' E 014°22'0 0.0
2016-Apr-22 16:32N 55°33' E 014°22'0 0.0
2016-Apr-22 15:26N 55°33' E 014°22'0 0.0
2016-Apr-22 14:32N 55°33' E 014°22'0 0.0
2016-Apr-22 13:26N 55°33' E 014°22'0 0.0
2016-Apr-22 12:32N 55°33' E 014°22'0 0.0
2016-Apr-22 11:20N 55°33' E 014°22'0 0.0
2016-Apr-22 10:32N 55°33' E 014°22'0 0.0
2016-Apr-22 09:32N 55°33' E 014°22'0 0.0
2016-Apr-22 08:32N 55°33' E 014°22'0 0.0
2016-Apr-22 07:32N 55°33' E 014°22'0 0.0
2016-Apr-22 06:32N 55°33' E 014°22'0 0.0
2016-Apr-22 05:27N 55°33' E 014°22'0 0.0
2016-Apr-22 04:33N 55°33' E 014°22'0 0.0
2016-Apr-22 03:20N 55°33' E 014°22'0 0.0
2016-Apr-22 02:27N 55°33' E 014°22'0 0.0
2016-Apr-22 01:33N 55°33' E 014°22'0 0.0
2016-Apr-22 00:33N 55°33' E 014°22'0 0.0
2016-Apr-21 23:33N 55°33' E 014°22'0 0.0
2016-Apr-21 22:33N 55°33' E 014°22'0 0.0
2016-Apr-21 21:33N 55°33' E 014°22'0 0.0
2016-Apr-21 20:21N 55°33' E 014°22'  

Dump ship's entire track history